Time;durP1;ratioP1;P1;durP2;ratioP2;P2;SDS_P1;SDS_P2;PMS_P1;PMS_P2;Temp;Humidity;BMP_temperature;BMP_pressure;BME280_temperature;BME280_humidity;BME280_pressure;Samples;Min_cycle;Max_cycle;Signal;HPM_P1;HPM_P2
2023/12/27 09:37:31;;;;;;;5.40;1.70;;;10.10;99.90;;;;;;4892659;29;20222;-71
2023/12/27 09:39:58;;;;;;;5.33;1.03;;;10.10;99.90;;;;;;4899815;29;20258;-71
2023/12/27 09:42:25;;;;;;;2.33;0.87;;;10.00;99.90;;;;;;4900413;29;20266;-71
2023/12/27 09:44:54;;;;;;;2.80;0.90;;;10.10;99.90;;;;;;4900427;29;20213;-73
2023/12/27 09:47:24;;;;;;;2.50;0.80;;;10.20;99.90;;;;;;4900832;29;20211;-70
2023/12/27 09:49:55;;;;;;;3.03;1.00;;;10.20;99.90;;;;;;4900509;29;20238;-69
2023/12/27 09:52:24;;;;;;;4.83;1.10;;;10.20;99.90;;;;;;4900062;29;20286;-70
2023/12/27 09:54:52;;;;;;;2.87;1.00;;;10.20;99.90;;;;;;4900485;29;20211;-71
2023/12/27 09:57:22;;;;;;;3.13;1.40;;;10.20;99.90;;;;;;4900273;29;20681;-69
2023/12/27 09:59:54;;;;;;;1.83;0.63;;;10.20;99.90;;;;;;4900261;29;20223;-73
2023/12/27 10:02:25;;;;;;;4.03;1.37;;;10.20;99.90;;;;;;4900089;29;20234;-69
2023/12/27 10:05:02;;;;;;;2.90;1.10;;;10.20;99.90;;;;;;4898466;29;20241;-70
2023/12/27 10:07:32;;;;;;;2.17;0.90;;;10.20;99.90;;;;;;4899537;29;20673;-69
2023/12/27 10:10:01;;;;;;;1.77;0.97;;;10.10;99.90;;;;;;4899815;29;20241;-70
2023/12/27 10:12:30;;;;;;;1.90;1.10;;;10.20;99.90;;;;;;4899755;29;20241;-71
2023/12/27 10:14:58;;;;;;;2.87;1.23;;;10.30;99.90;;;;;;4899246;29;20214;-71
2023/12/27 10:17:25;;;;;;;2.03;1.23;;;10.30;99.90;;;;;;4900383;29;20674;-70
2023/12/27 10:19:52;;;;;;;2.10;1.10;;;10.30;99.90;;;;;;4900502;29;20210;-70
2023/12/27 10:22:19;;;;;;;4.30;0.90;;;10.50;99.90;;;;;;4899801;29;20305;-70
2023/12/27 10:24:47;;;;;;;2.73;0.70;;;10.30;99.90;;;;;;4900175;29;20217;-70
2023/12/27 10:27:15;;;;;;;1.90;0.87;;;10.40;99.90;;;;;;4899682;29;20614;-69
2023/12/27 10:29:47;;;;;;;6.40;1.00;;;10.40;99.90;;;;;;4900121;29;20214;-70
2023/12/27 10:32:17;;;;;;;1.40;0.80;;;10.40;99.90;;;;;;4899366;29;20230;-73
2023/12/27 10:34:44;;;;;;;2.10;0.87;;;10.30;99.90;;;;;;4899986;29;20618;-70
2023/12/27 10:37:13;;;;;;;1.13;0.80;;;10.30;99.90;;;;;;4899091;29;20218;-69
2023/12/27 10:39:45;;;;;;;4.23;0.80;;;10.50;99.90;;;;;;4899822;29;20218;-69
2023/12/27 10:42:13;;;;;;;3.63;1.10;;;10.50;99.90;;;;;;4899692;29;20254;-70
2023/12/27 10:44:42;;;;;;;0.87;0.70;;;10.50;99.90;;;;;;4900021;29;20637;-70
2023/12/27 10:47:12;;;;;;;2.03;1.00;;;10.60;99.90;;;;;;4900073;29;20333;-73
2023/12/27 10:49:42;;;;;;;2.20;1.20;;;10.60;99.90;;;;;;4899419;29;20214;-74
2023/12/27 10:52:11;;;;;;;1.27;0.90;;;10.60;99.90;;;;;;4899283;29;20237;-70
2023/12/27 10:54:45;;;;;;;4.47;1.30;;;10.60;99.90;;;;;;4899472;29;20301;-70
2023/12/27 10:57:18;;;;;;;2.70;1.00;;;10.60;99.90;;;;;;4899767;29;20214;-71
2023/12/27 10:59:48;;;;;;;2.47;0.87;;;10.70;99.90;;;;;;4899516;29;20221;-70
2023/12/27 11:02:17;;;;;;;3.87;1.00;;;10.70;99.90;;;;;;4899404;29;20237;-71
2023/12/27 11:04:46;;;;;;;3.67;0.60;;;10.80;99.90;;;;;;4899191;29;20210;-69
2023/12/27 11:07:14;;;;;;;1.63;0.70;;;10.80;99.90;;;;;;4899627;29;20267;-70
2023/12/27 11:09:43;;;;;;;4.13;1.53;;;10.80;99.90;;;;;;4899500;29;20211;-70
2023/12/27 11:12:12;;;;;;;3.93;1.10;;;10.70;99.90;;;;;;4899301;29;20227;-71
2023/12/27 11:14:42;;;;;;;3.83;0.80;;;10.70;99.90;;;;;;4899280;29;20253;-72
2023/12/27 11:17:13;;;;;;;2.87;1.00;;;10.60;99.90;;;;;;4899282;29;20221;-73
2023/12/27 11:19:42;;;;;;;4.03;0.90;;;10.50;99.90;;;;;;4899624;29;20216;-71
2023/12/27 11:22:10;;;;;;;1.80;0.67;;;10.50;99.90;;;;;;4899175;29;20226;-72
2023/12/27 11:24:39;;;;;;;5.43;1.00;;;10.60;99.90;;;;;;4899418;29;20210;-73
2023/12/27 11:27:07;;;;;;;3.90;0.90;;;10.60;99.90;;;;;;4899349;29;20344;-72
2023/12/27 11:29:37;;;;;;;0.73;0.60;;;10.70;99.90;;;;;;4899592;29;20210;-71
2023/12/27 11:32:06;;;;;;;2.50;0.90;;;10.60;99.90;;;;;;4898834;29;20250;-72
2023/12/27 11:34:36;;;;;;;1.57;0.90;;;10.70;99.90;;;;;;4898936;29;20237;-72
2023/12/27 11:37:03;;;;;;;4.10;1.00;;;10.70;99.90;;;;;;4899029;29;20298;-72
2023/12/27 11:39:30;;;;;;;2.27;0.73;;;10.80;99.90;;;;;;4898973;29;20275;-72
2023/12/27 11:42:00;;;;;;;2.53;0.70;;;10.90;99.90;;;;;;4898822;29;20230;-72
2023/12/27 11:44:38;;;;;;;4.90;0.90;;;10.80;99.90;;;;;;4899434;29;20218;-73
2023/12/27 11:47:05;;;;;;;1.93;0.60;;;10.80;99.90;;;;;;4898525;29;20602;-77
2023/12/27 11:49:34;;;;;;;2.57;0.53;;;10.90;99.90;;;;;;4898046;29;20327;-77
2023/12/27 11:52:01;;;;;;;3.37;1.00;;;11.00;99.90;;;;;;4898069;29;20732;-72
2023/12/27 11:54:28;;;;;;;1.67;0.70;;;11.00;99.90;;;;;;4897994;29;20218;-74
2023/12/27 11:56:56;;;;;;;5.43;0.97;;;10.90;99.90;;;;;;4897827;29;20599;-75
2023/12/27 11:59:25;;;;;;;5.50;1.13;;;10.90;99.90;;;;;;4898056;29;20270;-75
2023/12/27 12:01:53;;;;;;;1.13;0.73;;;10.80;99.90;;;;;;4899633;29;20219;-77
2023/12/27 12:04:49;;;;;;;2.33;1.00;;;10.80;99.90;;;;;;4900685;29;20203;-76
2023/12/27 12:07:54;;;;;;;3.50;0.80;;;10.90;99.90;;;;;;4899916;29;20539;-79
2023/12/27 12:10:23;;;;;;;2.83;0.80;;;11.00;99.90;;;;;;4893077;29;20728;-78
2023/12/27 12:12:51;;;;;;;2.33;0.80;;;11.10;99.90;;;;;;4897283;29;20233;-76
2023/12/27 12:15:22;;;;;;;1.70;1.07;;;11.10;99.90;;;;;;4896828;29;20701;-75
2023/12/27 12:17:49;;;;;;;2.77;0.70;;;11.10;99.90;;;;;;4896928;29;20213;-77
2023/12/27 12:20:18;;;;;;;1.83;0.90;;;11.10;99.90;;;;;;4897261;29;20665;-75
2023/12/27 12:22:45;;;;;;;1.80;0.70;;;11.20;99.90;;;;;;4897341;29;20242;-79
2023/12/27 12:25:13;;;;;;;0.80;0.50;;;11.20;99.90;;;;;;4896481;29;20659;-75
2023/12/27 12:27:43;;;;;;;1.83;0.60;;;11.10;99.90;;;;;;4897009;29;20214;-78
2023/12/27 12:30:11;;;;;;;2.00;0.80;;;11.10;99.90;;;;;;4896745;29;20206;-78
2023/12/27 12:32:41;;;;;;;1.90;0.90;;;11.10;99.90;;;;;;4897448;29;20289;-77
2023/12/27 12:35:09;;;;;;;2.27;0.80;;;11.00;99.90;;;;;;4897398;29;20288;-76
2023/12/27 12:37:38;;;;;;;1.83;0.83;;;10.80;99.90;;;;;;4897459;29;20284;-76
2023/12/27 12:40:08;;;;;;;2.53;0.77;;;10.80;99.90;;;;;;4895934;29;20234;-75
2023/12/27 12:42:35;;;;;;;2.40;0.73;;;10.90;99.90;;;;;;4897168;29;20230;-75
2023/12/27 12:45:04;;;;;;;1.53;0.70;;;10.90;99.90;;;;;;4896731;29;20207;-72
2023/12/27 12:47:33;;;;;;;2.70;0.80;;;10.90;99.90;;;;;;4896921;29;20293;-72
2023/12/27 12:50:01;;;;;;;2.33;0.80;;;10.80;99.90;;;;;;4896737;29;20211;-75
2023/12/27 12:52:28;;;;;;;4.80;0.70;;;10.90;99.90;;;;;;4896843;29;20650;-74
2023/12/27 12:55:00;;;;;;;1.23;0.80;;;10.90;99.90;;;;;;4897508;29;20210;-77
2023/12/27 12:57:29;;;;;;;1.67;0.80;;;10.90;99.90;;;;;;4897103;29;20218;-77
2023/12/27 12:59:56;;;;;;;3.23;0.70;;;10.90;99.90;;;;;;4897174;29;20218;-74
2023/12/27 13:02:23;;;;;;;1.07;0.60;;;10.90;99.90;;;;;;4897074;29;20317;-74
2023/12/27 13:04:52;;;;;;;2.13;0.80;;;10.90;99.90;;;;;;4896630;29;20214;-74
2023/12/27 13:07:21;;;;;;;1.73;0.50;;;11.00;99.90;;;;;;4897385;29;20547;-73
2023/12/27 13:10:00;;;;;;;1.03;0.70;;;10.90;99.90;;;;;;4897452;29;20234;-76
2023/12/27 13:12:29;;;;;;;2.10;0.47;;;10.90;99.90;;;;;;4897434;29;20230;-74
2023/12/27 13:14:57;;;;;;;1.40;0.70;;;10.90;99.90;;;;;;4899697;29;20297;-75
2023/12/27 13:17:24;;;;;;;3.23;0.60;;;10.90;99.90;;;;;;4900977;29;20230;-73
2023/12/27 13:19:51;;;;;;;2.00;0.73;;;10.90;99.90;;;;;;4900388;29;20198;-70
2023/12/27 13:22:18;;;;;;;3.10;1.07;;;10.90;99.90;;;;;;4900258;29;20261;-71
2023/12/27 13:24:45;;;;;;;1.60;0.70;;;10.80;99.90;;;;;;4900622;29;20246;-71
2023/12/27 13:27:14;;;;;;;1.10;0.60;;;10.90;99.90;;;;;;4900960;29;20269;-72
2023/12/27 13:29:41;;;;;;;1.73;0.90;;;10.80;99.90;;;;;;4899802;29;20253;-73
2023/12/27 13:32:09;;;;;;;1.83;0.67;;;10.70;99.90;;;;;;4900398;29;20238;-71
2023/12/27 13:34:40;;;;;;;1.60;0.50;;;10.70;99.90;;;;;;4901062;29;20206;-69
2023/12/27 13:37:07;;;;;;;1.90;0.60;;;10.80;99.90;;;;;;4901141;29;20229;-71
2023/12/27 13:39:39;;;;;;;1.33;0.60;;;10.70;99.90;;;;;;4901075;29;20214;-71
2023/12/27 13:42:06;;;;;;;2.20;0.80;;;10.80;99.90;;;;;;4900986;29;20234;-69
2023/12/27 13:44:36;;;;;;;1.67;0.60;;;10.60;99.90;;;;;;4900982;29;20218;-69
2023/12/27 13:47:04;;;;;;;0.90;0.70;;;10.70;99.90;;;;;;4900864;29;20206;-71
2023/12/27 13:49:30;;;;;;;6.73;1.57;;;10.60;99.90;;;;;;4901164;29;20249;-72
2023/12/27 13:51:57;;;;;;;2.10;0.40;;;10.50;99.90;;;;;;4900726;29;20242;-70
2023/12/27 13:54:24;;;;;;;2.77;0.70;;;10.50;99.90;;;;;;4900217;29;20229;-70
2023/12/27 13:56:51;;;;;;;2.87;1.37;;;10.40;99.90;;;;;;4901090;29;20211;-71
2023/12/27 13:59:19;;;;;;;1.87;0.73;;;10.50;99.90;;;;;;4900505;29;20629;-71
2023/12/27 14:01:47;;;;;;;3.93;0.80;;;10.60;99.90;;;;;;4900296;29;20313;-71
2023/12/27 14:04:14;;;;;;;4.57;1.00;;;10.50;99.90;;;;;;4900439;29;20249;-71
2023/12/27 14:06:42;;;;;;;3.73;0.90;;;10.50;99.90;;;;;;4900042;29;20206;-71
2023/12/27 14:09:09;;;;;;;1.57;0.60;;;10.40;99.90;;;;;;4901664;29;20207;-71
2023/12/27 14:11:37;;;;;;;2.20;0.70;;;10.40;99.90;;;;;;4901326;29;20296;-70
2023/12/27 14:14:05;;;;;;;3.03;0.90;;;10.30;99.90;;;;;;4900710;29;20206;-72
2023/12/27 14:16:33;;;;;;;0.60;0.40;;;10.40;99.90;;;;;;4900507;29;20206;-71
2023/12/27 14:19:02;;;;;;;1.50;0.80;;;10.40;99.90;;;;;;4900197;29;20282;-71
2023/12/27 14:21:33;;;;;;;3.00;0.73;;;10.40;99.90;;;;;;4900526;29;20298;-71
2023/12/27 14:24:02;;;;;;;2.80;0.70;;;10.40;99.90;;;;;;4899645;29;20353;-76
2023/12/27 14:26:31;;;;;;;2.77;0.70;;;10.40;99.90;;;;;;4899491;29;20206;-70
2023/12/27 14:28:58;;;;;;;4.20;0.70;;;10.30;99.90;;;;;;4902730;29;20305;-74
2023/12/27 14:31:26;;;;;;;0.93;0.57;;;10.40;99.90;;;;;;4900106;29;20226;-71
2023/12/27 14:33:54;;;;;;;2.83;0.57;;;10.40;99.90;;;;;;4899032;29;20234;-71
2023/12/27 14:36:22;;;;;;;1.20;0.67;;;10.40;99.90;;;;;;4899275;29;20662;-71
2023/12/27 14:38:51;;;;;;;0.70;0.43;;;10.30;99.90;;;;;;4898225;29;20237;-72
2023/12/27 14:41:19;;;;;;;1.00;0.50;;;10.30;99.90;;;;;;4899936;29;20206;-71
2023/12/27 14:43:47;;;;;;;0.67;0.43;;;10.30;99.90;;;;;;4900027;29;20264;-71
2023/12/27 14:46:14;;;;;;;3.17;0.70;;;10.20;99.90;;;;;;4899711;29;20226;-71
2023/12/27 14:48:42;;;;;;;1.80;0.70;;;10.20;99.90;;;;;;4899593;29;20681;-71
2023/12/27 14:51:10;;;;;;;3.20;0.60;;;10.20;99.90;;;;;;4899123;29;20286;-71
2023/12/27 14:53:39;;;;;;;1.23;0.63;;;10.10;99.90;;;;;;4898554;29;20198;-70
2023/12/27 14:56:07;;;;;;;2.10;0.70;;;10.20;99.90;;;;;;4899555;29;20213;-70
2023/12/27 14:58:34;;;;;;;1.13;0.60;;;10.10;99.90;;;;;;4900038;29;20199;-69
2023/12/27 15:01:01;;;;;;;2.27;0.83;;;10.10;99.90;;;;;;4899804;29;20206;-71
2023/12/27 15:03:29;;;;;;;3.63;0.57;;;10.10;99.90;;;;;;4899533;29;20222;-71
2023/12/27 15:05:56;;;;;;;5.23;0.90;;;10.10;99.90;;;;;;4899088;29;20219;-75
2023/12/27 15:08:23;;;;;;;1.00;0.70;;;10.10;99.90;;;;;;4899234;29;20229;-69
2023/12/27 15:10:52;;;;;;;2.37;0.60;;;10.10;99.90;;;;;;4898879;29;20202;-70
2023/12/27 15:13:20;;;;;;;1.53;0.60;;;10.00;99.90;;;;;;4900831;29;20234;-69
2023/12/27 15:15:47;;;;;;;1.03;0.60;;;10.00;99.90;;;;;;4899566;29;20266;-71
2023/12/27 15:18:14;;;;;;;3.70;0.97;;;9.90;99.90;;;;;;4898668;29;20210;-73
2023/12/27 15:20:43;;;;;;;2.73;0.60;;;9.90;99.90;;;;;;4899179;29;20214;-75
2023/12/27 15:23:10;;;;;;;3.10;0.67;;;9.80;99.90;;;;;;4898154;29;20250;-71
2023/12/27 15:25:38;;;;;;;2.50;0.50;;;9.70;99.90;;;;;;4898281;29;20203;-72
2023/12/27 15:28:11;;;;;;;1.00;0.50;;;9.80;99.90;;;;;;4898429;29;20209;-72
2023/12/27 15:30:38;;;;;;;2.33;0.50;;;9.70;99.90;;;;;;4886293;29;20211;-72
2023/12/27 15:33:06;;;;;;;2.20;0.50;;;9.70;99.90;;;;;;4899831;29;20248;-71
2023/12/27 15:35:33;;;;;;;0.60;0.50;;;9.70;99.90;;;;;;4898786;29;20241;-70
2023/12/27 15:38:01;;;;;;;1.00;0.40;;;9.60;99.90;;;;;;4899525;29;20249;-70
2023/12/27 15:40:28;;;;;;;1.23;0.50;;;9.60;99.90;;;;;;4899159;29;20210;-72
2023/12/27 15:42:55;;;;;;;4.93;0.60;;;9.60;99.90;;;;;;4899274;29;20249;-73
2023/12/27 15:45:24;;;;;;;1.80;0.77;;;9.60;99.90;;;;;;4898148;29;20211;-71
2023/12/27 15:47:51;;;;;;;1.07;0.37;;;9.60;99.90;;;;;;4898303;29;20240;-71
2023/12/27 15:50:18;;;;;;;1.20;0.70;;;9.60;99.90;;;;;;4898625;29;20591;-72
2023/12/27 15:52:45;;;;;;;1.20;0.40;;;9.60;99.90;;;;;;4898732;29;20242;-72
2023/12/27 15:55:17;;;;;;;0.77;0.43;;;9.60;99.90;;;;;;4898348;29;20207;-71
2023/12/27 15:57:44;;;;;;;1.20;0.70;;;9.60;99.90;;;;;;4897296;29;20214;-72
2023/12/27 16:00:12;;;;;;;0.87;0.43;;;9.50;99.90;;;;;;4897553;29;20558;-71
2023/12/27 16:02:41;;;;;;;1.13;0.50;;;9.50;99.90;;;;;;4897520;29;20578;-70
2023/12/27 16:05:09;;;;;;;2.53;0.80;;;9.50;99.90;;;;;;4897043;29;20218;-71
2023/12/27 16:07:36;;;;;;;0.90;0.40;;;9.40;99.90;;;;;;4896818;29;20245;-72
2023/12/27 16:10:05;;;;;;;1.10;0.43;;;9.50;99.90;;;;;;4897803;29;20301;-71
2023/12/27 16:12:33;;;;;;;2.80;0.83;;;9.40;99.90;;;;;;4897215;29;20242;-70
2023/12/27 16:15:00;;;;;;;2.03;0.80;;;9.50;99.90;;;;;;4897757;29;20210;-71
2023/12/27 16:17:27;;;;;;;2.40;0.50;;;9.50;99.90;;;;;;4897549;29;20698;-70
2023/12/27 16:19:56;;;;;;;2.30;0.60;;;9.40;99.90;;;;;;4897718;29;20301;-70
2023/12/27 16:22:23;;;;;;;1.30;0.60;;;9.40;99.90;;;;;;4897527;29;20688;-71
2023/12/27 16:24:50;;;;;;;1.50;0.60;;;9.40;99.90;;;;;;4897450;29;20217;-71
2023/12/27 16:27:18;;;;;;;0.80;0.53;;;9.30;99.90;;;;;;4897263;29;20588;-75
2023/12/27 16:29:45;;;;;;;4.20;0.50;;;9.30;99.90;;;;;;4897645;29;20206;-78
2023/12/27 16:32:14;;;;;;;2.00;0.43;;;9.30;99.90;;;;;;4897416;29;20261;-72
2023/12/27 16:34:41;;;;;;;1.73;0.77;;;9.30;99.90;;;;;;4897301;29;20206;-73
2023/12/27 16:37:10;;;;;;;1.97;0.60;;;9.20;99.90;;;;;;4896844;29;20215;-75
2023/12/27 16:39:37;;;;;;;0.57;0.40;;;9.30;99.90;;;;;;4897386;29;20203;-76
2023/12/27 16:42:07;;;;;;;2.20;0.73;;;9.30;99.90;;;;;;4898307;29;20234;-72
2023/12/27 16:44:36;;;;;;;1.17;0.50;;;9.20;99.90;;;;;;4899978;29;20203;-75
2023/12/27 16:47:03;;;;;;;1.83;0.57;;;9.20;99.90;;;;;;4899223;29;20261;-72
2023/12/27 16:49:30;;;;;;;1.73;0.77;;;9.20;99.90;;;;;;4901581;29;20214;-73
2023/12/27 16:51:57;;;;;;;2.13;0.40;;;9.20;99.90;;;;;;4902082;29;20234;-74
2023/12/27 16:54:26;;;;;;;1.63;0.87;;;9.20;99.90;;;;;;4903557;29;20214;-72
2023/12/27 16:56:54;;;;;;;0.53;0.50;;;9.20;99.90;;;;;;4902257;29;20214;-75
2023/12/27 16:59:21;;;;;;;2.50;0.60;;;9.20;99.90;;;;;;4905560;29;20211;-75
2023/12/27 17:01:48;;;;;;;3.40;0.50;;;9.30;99.90;;;;;;4897644;29;20253;-70
2023/12/27 17:04:15;;;;;;;1.23;0.80;;;9.30;99.90;;;;;;4902091;29;20221;-71
2023/12/27 17:06:42;;;;;;;1.30;0.60;;;9.30;99.90;;;;;;4902238;29;20368;-74
2023/12/27 17:09:12;;;;;;;5.20;1.20;;;9.30;99.90;;;;;;4903268;29;20271;-70
2023/12/27 17:11:40;;;;;;;1.07;0.57;;;9.20;99.90;;;;;;4900553;29;20227;-71
2023/12/27 17:14:08;;;;;;;2.43;0.50;;;9.20;99.90;;;;;;4901862;29;20257;-73
2023/12/27 17:16:35;;;;;;;3.17;0.80;;;9.20;99.90;;;;;;4901034;29;20238;-75
2023/12/27 17:19:02;;;;;;;2.13;0.70;;;9.20;99.90;;;;;;4882602;29;20215;-74
2023/12/27 17:21:30;;;;;;;1.00;0.60;;;9.20;99.90;;;;;;4883635;29;20281;-72
2023/12/27 17:23:57;;;;;;;2.00;0.50;;;9.20;99.90;;;;;;4884339;29;20235;-73
2023/12/27 17:26:24;;;;;;;2.87;0.80;;;9.20;99.90;;;;;;4898152;29;20222;-75
2023/12/27 17:28:53;;;;;;;1.87;0.50;;;9.20;99.90;;;;;;4902696;29;20241;-73
2023/12/27 17:31:20;;;;;;;1.07;0.30;;;9.20;99.90;;;;;;4901685;29;20211;-74
2023/12/27 17:33:47;;;;;;;1.17;0.53;;;9.20;99.90;;;;;;4900681;29;20253;-69
2023/12/27 17:36:14;;;;;;;1.63;0.53;;;9.20;99.90;;;;;;4901297;29;20245;-69
2023/12/27 17:38:42;;;;;;;0.83;0.50;;;9.20;99.90;;;;;;4900743;29;20206;-70
2023/12/27 17:41:09;;;;;;;3.23;0.80;;;9.20;99.90;;;;;;4899864;29;20210;-70
2023/12/27 17:43:40;;;;;;;0.67;0.43;;;9.20;99.90;;;;;;4900329;29;20257;-72
2023/12/27 17:46:08;;;;;;;1.57;0.63;;;9.30;99.90;;;;;;4907556;29;20216;-71
2023/12/27 17:48:38;;;;;;;0.53;0.40;;;9.30;99.90;;;;;;4900624;29;20350;-71
2023/12/27 17:51:05;;;;;;;0.70;0.43;;;9.30;99.90;;;;;;4899933;29;20237;-74
2023/12/27 17:53:32;;;;;;;0.80;0.40;;;9.30;99.90;;;;;;4900204;29;20234;-72
2023/12/27 17:55:59;;;;;;;1.13;0.50;;;9.30;99.90;;;;;;4900436;29;20222;-71
2023/12/27 17:58:27;;;;;;;2.47;0.67;;;9.40;99.90;;;;;;4900150;29;20625;-72
2023/12/27 18:00:54;;;;;;;1.00;0.63;;;9.40;99.90;;;;;;4899778;29;20271;-71
2023/12/27 18:03:23;;;;;;;0.70;0.40;;;9.40;99.90;;;;;;4900169;29;20653;-74
2023/12/27 18:05:51;;;;;;;1.10;0.70;;;9.40;99.90;;;;;;4899791;29;20301;-73
2023/12/27 18:08:19;;;;;;;2.17;0.50;;;9.40;99.90;;;;;;4900057;29;20547;-73
2023/12/27 18:10:46;;;;;;;0.60;0.50;;;9.40;99.90;;;;;;4900037;29;20214;-72
2023/12/27 18:13:13;;;;;;;1.10;0.63;;;9.50;99.90;;;;;;4899952;29;20242;-71
2023/12/27 18:15:41;;;;;;;1.73;0.60;;;9.40;99.90;;;;;;4900288;29;20210;-70
2023/12/27 18:18:09;;;;;;;0.37;0.37;;;9.40;99.90;;;;;;4900087;29;20305;-70
2023/12/27 18:20:38;;;;;;;1.53;0.60;;;9.40;99.90;;;;;;4900229;29;20301;-71
2023/12/27 18:23:05;;;;;;;1.27;0.70;;;9.50;99.90;;;;;;4900519;29;20249;-70
2023/12/27 18:25:32;;;;;;;0.83;0.50;;;9.50;99.90;;;;;;4893192;29;20219;-70
2023/12/27 18:28:00;;;;;;;0.93;0.60;;;9.40;99.90;;;;;;4899395;29;20241;-69
2023/12/27 18:30:28;;;;;;;0.90;0.60;;;9.40;99.90;;;;;;4899422;29;20298;-74
2023/12/27 18:32:55;;;;;;;1.00;0.57;;;9.50;99.90;;;;;;4899528;29;20238;-69
2023/12/27 18:35:22;;;;;;;1.63;0.60;;;9.50;99.90;;;;;;4900940;29;20207;-71
2023/12/27 18:37:51;;;;;;;1.33;0.50;;;9.50;99.90;;;;;;4898954;29;20210;-70
2023/12/27 18:40:18;;;;;;;2.53;0.60;;;9.50;99.90;;;;;;4899300;29;20221;-70
2023/12/27 18:42:46;;;;;;;2.10;0.60;;;9.50;99.90;;;;;;4898569;29;20313;-71
2023/12/27 18:45:13;;;;;;;1.47;0.63;;;9.40;99.90;;;;;;4899369;29;20293;-71
2023/12/27 18:47:41;;;;;;;0.97;0.50;;;9.50;99.90;;;;;;4899712;29;20246;-70
2023/12/27 18:50:09;;;;;;;1.70;0.60;;;9.50;99.90;;;;;;4899510;29;20202;-72
2023/12/27 18:52:36;;;;;;;1.60;0.40;;;9.50;99.90;;;;;;4899463;29;20234;-70
2023/12/27 18:55:05;;;;;;;1.23;0.70;;;9.50;99.90;;;;;;4896967;29;20555;-70
2023/12/27 18:57:34;;;;;;;3.97;0.93;;;9.50;99.90;;;;;;4892768;29;20648;-76
2023/12/27 19:00:01;;;;;;;0.80;0.50;;;9.60;99.90;;;;;;4898747;29;20246;-70
2023/12/27 19:02:28;;;;;;;0.70;0.70;;;9.60;99.90;;;;;;4899013;29;20227;-71
2023/12/27 19:04:55;;;;;;;2.90;0.53;;;9.50;99.90;;;;;;4898943;29;20535;-70
2023/12/27 19:07:22;;;;;;;2.17;0.60;;;9.60;99.90;;;;;;4898874;29;20214;-70
2023/12/27 19:09:50;;;;;;;1.43;0.93;;;9.60;99.90;;;;;;4898424;29;20215;-70
2023/12/27 19:12:20;;;;;;;2.47;0.80;;;9.70;99.90;;;;;;4891061;29;20313;-75
2023/12/27 19:14:47;;;;;;;1.73;0.63;;;9.80;99.90;;;;;;4898882;29;20301;-70
2023/12/27 19:17:14;;;;;;;0.93;0.60;;;9.80;99.90;;;;;;4899015;29;20238;-71
2023/12/27 19:19:42;;;;;;;0.80;0.40;;;9.90;99.90;;;;;;4898784;29;20206;-70
2023/12/27 19:22:09;;;;;;;0.73;0.60;;;9.90;99.90;;;;;;4898909;29;20646;-70
2023/12/27 19:24:36;;;;;;;2.13;0.50;;;10.00;99.90;;;;;;4898359;29;20681;-69
2023/12/27 19:27:05;;;;;;;1.20;0.50;;;10.00;99.90;;;;;;4888962;29;20207;-70
2023/12/27 19:29:33;;;;;;;2.10;0.63;;;10.00;99.90;;;;;;4895393;29;20218;-71
2023/12/27 19:32:02;;;;;;;4.23;0.40;;;10.10;99.90;;;;;;4898854;29;20254;-69
2023/12/27 19:34:30;;;;;;;1.60;0.80;;;10.00;99.90;;;;;;4898337;29;20347;-70
2023/12/27 19:36:57;;;;;;;1.20;0.60;;;10.10;99.90;;;;;;4898725;29;20214;-71
2023/12/27 19:39:24;;;;;;;3.13;0.83;;;10.00;99.90;;;;;;4898313;29;20218;-71
2023/12/27 19:41:51;;;;;;;1.40;0.63;;;10.00;99.90;;;;;;4898831;29;20230;-74
2023/12/27 19:44:19;;;;;;;2.20;0.83;;;10.10;99.90;;;;;;4897941;29;20900;-70
2023/12/27 19:46:47;;;;;;;1.73;0.60;;;10.00;99.90;;;;;;4897598;29;20214;-75
2023/12/27 19:49:14;;;;;;;1.30;0.60;;;10.10;99.90;;;;;;4897571;29;20619;-75
2023/12/27 19:51:43;;;;;;;1.57;0.60;;;10.10;99.90;;;;;;4898127;29;20234;-75
2023/12/27 19:54:11;;;;;;;1.13;0.60;;;10.10;99.90;;;;;;4897731;29;20238;-73
2023/12/27 19:56:38;;;;;;;0.87;0.43;;;10.20;99.90;;;;;;4896507;29;20570;-75
2023/12/27 19:59:07;;;;;;;0.57;0.40;;;10.20;99.90;;;;;;4896645;29;20210;-76
2023/12/27 20:01:34;;;;;;;3.03;0.87;;;10.20;99.90;;;;;;4897310;29;20236;-73
2023/12/27 20:04:02;;;;;;;1.27;0.43;;;10.30;99.90;;;;;;4897659;29;20611;-75
2023/12/27 20:06:30;;;;;;;1.90;0.90;;;10.40;99.90;;;;;;4898112;29;20222;-74
2023/12/27 20:08:57;;;;;;;0.80;0.60;;;10.40;99.90;;;;;;4896797;29;20734;-74
2023/12/27 20:11:25;;;;;;;1.40;0.77;;;10.40;99.90;;;;;;4896973;29;20594;-76
2023/12/27 20:13:53;;;;;;;3.07;0.90;;;10.50;99.90;;;;;;4895528;29;20234;-76
2023/12/27 20:16:23;;;;;;;1.43;0.70;;;10.60;99.90;;;;;;4897863;29;20214;-77
2023/12/27 20:18:50;;;;;;;0.80;0.53;;;10.60;99.90;;;;;;4897455;29;20206;-74
2023/12/27 20:21:19;;;;;;;2.30;0.67;;;10.50;99.90;;;;;;4892328;29;20576;-77
2023/12/27 20:23:47;;;;;;;1.43;0.70;;;10.40;99.90;;;;;;4895562;29;20789;-77
2023/12/27 20:26:14;;;;;;;0.70;0.50;;;10.30;99.90;;;;;;4897043;29;20203;-77
2023/12/27 20:28:41;;;;;;;3.77;0.70;;;10.40;99.90;;;;;;4896947;29;20215;-75
2023/12/27 20:31:09;;;;;;;0.67;0.50;;;10.40;99.90;;;;;;4897630;29;20221;-75
2023/12/27 20:33:38;;;;;;;1.37;0.80;;;10.60;99.90;;;;;;4896832;29;20266;-76
2023/12/27 20:36:06;;;;;;;1.00;0.70;;;10.60;99.90;;;;;;4896787;29;20265;-73
2023/12/27 20:38:36;;;;;;;0.93;0.60;;;10.70;99.90;;;;;;4897010;29;20229;-74
2023/12/27 20:41:04;;;;;;;1.67;0.87;;;10.80;99.90;;;;;;4896957;29;20365;-73
2023/12/27 20:43:34;;;;;;;1.90;0.60;;;10.80;99.90;;;;;;4897573;29;20749;-70
2023/12/27 20:46:02;;;;;;;0.70;0.40;;;10.90;99.90;;;;;;4897576;29;20203;-71
2023/12/27 20:48:30;;;;;;;1.40;0.50;;;10.90;99.90;;;;;;4897633;29;20214;-73
2023/12/27 20:50:59;;;;;;;0.40;0.40;;;11.00;99.90;;;;;;4897215;29;20209;-71
2023/12/27 20:53:27;;;;;;;0.93;0.40;;;11.00;99.90;;;;;;4897672;29;20352;-76
2023/12/27 20:55:56;;;;;;;2.30;0.90;;;10.90;99.90;;;;;;4897995;29;20238;-74
2023/12/27 20:58:23;;;;;;;1.57;0.53;;;11.00;99.90;;;;;;4897950;29;20226;-76
2023/12/27 21:00:51;;;;;;;1.00;0.50;;;11.00;99.90;;;;;;4897833;29;20309;-75
2023/12/27 21:03:18;;;;;;;1.07;0.57;;;11.00;99.90;;;;;;4897666;29;20237;-70
2023/12/27 21:05:52;;;;;;;1.40;0.70;;;11.00;99.90;;;;;;4897763;29;20238;-73
2023/12/27 21:08:20;;;;;;;1.33;0.80;;;11.00;99.90;;;;;;4898073;29;20245;-72
2023/12/27 21:10:50;;;;;;;1.03;0.63;;;10.90;99.90;;;;;;4898232;29;20250;-72
2023/12/27 21:13:21;;;;;;;1.50;0.53;;;11.00;99.90;;;;;;4898204;29;20237;-75
2023/12/27 21:15:49;;;;;;;1.53;0.57;;;10.90;99.90;;;;;;4896842;29;20215;-71
2023/12/27 21:18:16;;;;;;;0.93;0.60;;;10.90;99.90;;;;;;4896689;29;20211;-76
2023/12/27 21:20:44;;;;;;;3.57;1.27;;;10.90;99.90;;;;;;4897074;29;20301;-72
2023/12/27 21:23:11;;;;;;;2.17;1.60;;;10.90;99.90;;;;;;4896566;29;20301;-73
2023/12/27 21:25:39;;;;;;;1.33;0.67;;;10.90;99.90;;;;;;4897135;29;20293;-75
2023/12/27 21:28:07;;;;;;;1.77;0.73;;;10.90;99.90;;;;;;4897940;29;20294;-73
2023/12/27 21:30:37;;;;;;;2.17;0.90;;;10.80;99.90;;;;;;4898763;29;20243;-76
2023/12/27 21:33:05;;;;;;;1.03;0.50;;;10.80;99.90;;;;;;4898091;29;20226;-72
2023/12/27 21:35:33;;;;;;;1.33;0.70;;;10.80;99.90;;;;;;4898842;29;20219;-73
2023/12/27 21:38:00;;;;;;;1.20;0.60;;;10.90;99.90;;;;;;4901201;29;20230;-75
2023/12/27 21:40:28;;;;;;;0.90;0.60;;;10.90;99.90;;;;;;4901344;29;20206;-75
2023/12/27 21:42:58;;;;;;;1.17;0.60;;;10.90;99.90;;;;;;4901285;29;20233;-73
2023/12/27 21:45:28;;;;;;;1.40;0.80;;;10.90;99.90;;;;;;4901944;29;20211;-72
2023/12/27 21:47:57;;;;;;;1.13;0.50;;;10.90;99.90;;;;;;4888408;29;20294;-71
2023/12/27 21:50:24;;;;;;;1.00;0.70;;;11.00;99.90;;;;;;4900810;29;20222;-75
2023/12/27 21:52:51;;;;;;;0.73;0.60;;;11.00;99.90;;;;;;4900656;29;20253;-72
2023/12/27 21:55:18;;;;;;;0.97;0.77;;;10.90;99.90;;;;;;4899881;29;20325;-71
2023/12/27 21:57:46;;;;;;;1.10;0.70;;;10.90;99.90;;;;;;4900032;29;20242;-70
2023/12/27 22:00:16;;;;;;;1.73;0.40;;;10.90;99.90;;;;;;4899923;29;20298;-71
2023/12/27 22:02:43;;;;;;;1.13;0.50;;;11.00;99.90;;;;;;4900260;29;20246;-72
2023/12/27 22:05:13;;;;;;;1.63;0.70;;;10.90;99.90;;;;;;4900383;29;20229;-73
2023/12/27 22:07:41;;;;;;;1.97;1.07;;;11.00;99.90;;;;;;4900237;29;20218;-76
2023/12/27 22:10:09;;;;;;;0.80;0.50;;;10.90;99.90;;;;;;4900010;29;20274;-71
2023/12/27 22:12:36;;;;;;;1.73;0.80;;;10.90;99.90;;;;;;4900066;29;20238;-70
2023/12/27 22:15:03;;;;;;;1.33;0.83;;;10.90;99.90;;;;;;4899591;29;20266;-69
2023/12/27 22:17:30;;;;;;;1.33;0.60;;;10.80;99.90;;;;;;4900254;29;20218;-73
2023/12/27 22:19:57;;;;;;;1.17;0.80;;;10.80;99.90;;;;;;4899450;29;20713;-75
2023/12/27 22:22:26;;;;;;;1.10;1.00;;;10.70;99.90;;;;;;4899278;29;20268;-70
2023/12/27 22:24:53;;;;;;;1.40;1.03;;;10.70;99.90;;;;;;4899505;29;20210;-76
2023/12/27 22:27:20;;;;;;;1.40;0.60;;;10.80;99.90;;;;;;4900138;29;20217;-70
2023/12/27 22:29:47;;;;;;;1.20;0.70;;;10.80;99.90;;;;;;4900214;29;20226;-74
2023/12/27 22:32:15;;;;;;;0.93;0.63;;;10.70;99.90;;;;;;4900305;29;20793;-76